sensor_id;sensor_type;location;lat;lon;timestamp;pressure;altitude;pressure_sealevel;temperature;humidity
56518;BME280;42419;48.760;2.322;2022-08-26T00:01:16;101003.88;;;26.45;41.51
56518;BME280;42419;48.760;2.322;2022-08-26T00:03:42;100986.22;;;26.39;41.91
56518;BME280;42419;48.760;2.322;2022-08-26T00:06:08;100988.63;;;26.44;41.87
56518;BME280;42419;48.760;2.322;2022-08-26T00:08:34;100970.31;;;26.34;41.69
56518;BME280;42419;48.760;2.322;2022-08-26T00:11:00;100988.53;;;26.45;41.59
56518;BME280;42419;48.760;2.322;2022-08-26T00:13:26;100977.34;;;26.37;41.84
56518;BME280;42419;48.760;2.322;2022-08-26T00:15:51;100966.94;;;26.31;41.78
56518;BME280;42419;48.760;2.322;2022-08-26T00:18:18;100996.66;;;26.45;41.96
56518;BME280;42419;48.760;2.322;2022-08-26T00:20:43;100970.97;;;26.38;42.22
56518;BME280;42419;48.760;2.322;2022-08-26T00:23:09;100975.63;;;26.36;41.99
56518;BME280;42419;48.760;2.322;2022-08-26T00:25:35;101002.03;;;26.45;42.01
56518;BME280;42419;48.760;2.322;2022-08-26T00:28:00;100979.28;;;26.35;41.98
56518;BME280;42419;48.760;2.322;2022-08-26T00:30:28;100987.09;;;26.40;42.03
56518;BME280;42419;48.760;2.322;2022-08-26T00:32:54;100999.44;;;26.44;42.25
56518;BME280;42419;48.760;2.322;2022-08-26T00:35:21;101003.88;;;26.45;41.67
56518;BME280;42419;48.760;2.322;2022-08-26T00:37:46;101003.88;;;26.45;42.11
56518;BME280;42419;48.760;2.322;2022-08-26T00:40:15;100999.44;;;26.44;42.15
56518;BME280;42419;48.760;2.322;2022-08-26T00:42:41;100993.66;;;26.35;42.05
56518;BME280;42419;48.760;2.322;2022-08-26T00:45:07;100992.28;;;26.43;41.92
56518;BME280;42419;48.760;2.322;2022-08-26T00:47:36;100994.31;;;26.39;42.36
56518;BME280;42419;48.760;2.322;2022-08-26T00:50:07;100992.19;;;26.44;42.03
56518;BME280;42419;48.760;2.322;2022-08-26T00:52:35;100997.81;;;26.41;41.86
56518;BME280;42419;48.760;2.322;2022-08-26T00:55:28;101004.84;;;26.44;42.16
56518;BME280;42419;48.760;2.322;2022-08-26T00:57:51;100996.81;;;26.42;42.52
56518;BME280;42419;48.760;2.322;2022-08-26T01:00:21;100996.16;;;26.39;42.27
56518;BME280;42419;48.760;2.322;2022-08-26T01:02:48;100995.09;;;26.41;42.24
56518;BME280;42419;48.760;2.322;2022-08-26T01:05:14;100978.41;;;26.34;42.35
56518;BME280;42419;48.760;2.322;2022-08-26T01:07:41;100994.22;;;26.41;41.74
56518;BME280;42419;48.760;2.322;2022-08-26T01:10:09;101000.50;;;26.41;42.02
56518;BME280;42419;48.760;2.322;2022-08-26T01:12:40;100998.69;;;26.42;42.13
56518;BME280;42419;48.760;2.322;2022-08-26T01:15:14;100976.03;;;26.28;42.35
56518;BME280;42419;48.760;2.322;2022-08-26T01:17:41;100939.22;;;26.13;42.36
56518;BME280;42419;48.760;2.322;2022-08-26T01:23:13;100982.63;;;26.39;42.20
56518;BME280;42419;48.760;2.322;2022-08-26T01:25:42;100994.41;;;26.38;42.14
56518;BME280;42419;48.760;2.322;2022-08-26T01:28:13;100979.28;;;26.35;42.26
56518;BME280;42419;48.760;2.322;2022-08-26T01:30:40;100991.63;;;26.39;42.14
56518;BME280;42419;48.760;2.322;2022-08-26T01:33:11;100994.50;;;26.36;42.02
56518;BME280;42419;48.760;2.322;2022-08-26T01:35:40;100993.06;;;26.30;42.66
56518;BME280;42419;48.760;2.322;2022-08-26T01:38:07;100994.41;;;26.38;42.20
56518;BME280;42419;48.760;2.322;2022-08-26T01:40:35;100974.50;;;26.24;42.09
56518;BME280;42419;48.760;2.322;2022-08-26T01:43:03;100983.28;;;26.28;42.52
56518;BME280;42419;48.760;2.322;2022-08-26T01:45:32;101000.78;;;26.37;42.08
56518;BME280;42419;48.760;2.322;2022-08-26T01:48:01;100986.06;;;26.26;42.81
56518;BME280;42419;48.760;2.322;2022-08-26T01:50:31;101000.88;;;26.35;42.64
56518;BME280;42419;48.760;2.322;2022-08-26T01:53:00;101000.00;;;26.34;42.62
56518;BME280;42419;48.760;2.322;2022-08-26T01:55:27;100994.81;;;26.31;42.84
56518;BME280;42419;48.760;2.322;2022-08-26T01:57:54;101005.41;;;26.34;42.65
56518;BME280;42419;48.760;2.322;2022-08-26T02:00:21;100989.84;;;26.24;42.65
56518;BME280;42419;48.760;2.322;2022-08-26T02:02:51;100974.22;;;26.15;42.62
56518;BME280;42419;48.760;2.322;2022-08-26T02:05:37;101009.94;;;26.34;42.78
56518;BME280;42419;48.760;2.322;2022-08-26T02:08:04;101009.06;;;26.33;42.80
56518;BME280;42419;48.760;2.322;2022-08-26T02:10:30;101016.28;;;26.33;42.71
56518;BME280;42419;48.760;2.322;2022-08-26T02:12:55;101003.84;;;26.30;42.89
56518;BME280;42419;48.760;2.322;2022-08-26T02:15:20;101010.88;;;26.33;42.35
56518;BME280;42419;48.760;2.322;2022-08-26T02:17:46;101018.97;;;26.33;42.75
56518;BME280;42419;48.760;2.322;2022-08-26T02:20:17;101018.22;;;26.31;42.50
56518;BME280;42419;48.760;2.322;2022-08-26T02:22:43;101018.16;;;26.32;42.28
56518;BME280;42419;48.760;2.322;2022-08-26T02:25:23;101011.00;;;26.31;42.36
56518;BME280;42419;48.760;2.322;2022-08-26T02:27:49;101016.41;;;26.31;42.76
56518;BME280;42419;48.760;2.322;2022-08-26T02:30:19;101015.59;;;26.29;42.75
56518;BME280;42419;48.760;2.322;2022-08-26T02:32:45;101016.41;;;26.31;42.88
56518;BME280;42419;48.760;2.322;2022-08-26T02:35:12;101020.06;;;26.30;42.73
56518;BME280;42419;48.760;2.322;2022-08-26T02:37:38;101020.06;;;26.30;42.43
56518;BME280;42419;48.760;2.322;2022-08-26T02:40:05;101010.66;;;26.22;43.00
56518;BME280;42419;48.760;2.322;2022-08-26T02:42:31;101019.34;;;26.27;42.62
56518;BME280;42419;48.760;2.322;2022-08-26T02:44:57;101008.91;;;26.21;42.84
56518;BME280;42419;48.760;2.322;2022-08-26T02:47:22;101024.63;;;26.28;42.51
56518;BME280;42419;48.760;2.322;2022-08-26T02:49:49;101026.50;;;26.28;42.92
56518;BME280;42419;48.760;2.322;2022-08-26T02:52:14;101023.09;;;26.24;42.73
56518;BME280;42419;48.760;2.322;2022-08-26T02:54:40;101022.03;;;26.27;42.48
56518;BME280;42419;48.760;2.322;2022-08-26T02:57:05;101019.34;;;26.27;42.91
56518;BME280;42419;48.760;2.322;2022-08-26T02:59:31;101025.63;;;26.27;42.58
56518;BME280;42419;48.760;2.322;2022-08-26T03:01:56;101024.75;;;26.27;42.75
56518;BME280;42419;48.760;2.322;2022-08-26T03:04:22;101009.88;;;26.20;42.92
56518;BME280;42419;48.760;2.322;2022-08-26T03:06:48;101023.00;;;26.26;42.81
56518;BME280;42419;48.760;2.322;2022-08-26T03:09:15;101019.34;;;26.27;42.85
56518;BME280;42419;48.760;2.322;2022-08-26T03:11:40;101025.69;;;26.26;42.70
56518;BME280;42419;48.760;2.322;2022-08-26T03:14:06;101020.50;;;26.23;42.90
56518;BME280;42419;48.760;2.322;2022-08-26T03:16:34;101024.81;;;26.25;43.13
56518;BME280;42419;48.760;2.322;2022-08-26T03:19:01;101023.00;;;26.26;43.03
56518;BME280;42419;48.760;2.322;2022-08-26T03:21:27;101014.97;;;26.24;42.99
56518;BME280;42419;48.760;2.322;2022-08-26T03:23:52;101026.66;;;26.25;42.52
56518;BME280;42419;48.760;2.322;2022-08-26T03:26:18;101026.66;;;26.25;43.01
56518;BME280;42419;48.760;2.322;2022-08-26T03:28:43;101018.84;;;26.20;42.89
56518;BME280;42419;48.760;2.322;2022-08-26T03:31:28;101024.06;;;26.23;42.82
56518;BME280;42419;48.760;2.322;2022-08-26T03:33:54;101016.25;;;26.19;42.65
56518;BME280;42419;48.760;2.322;2022-08-26T03:36:20;100999.63;;;26.11;42.84
56518;BME280;42419;48.760;2.322;2022-08-26T03:38:46;101017.88;;;26.21;43.18
56518;BME280;42419;48.760;2.322;2022-08-26T03:41:11;101017.97;;;26.20;42.77
56518;BME280;42419;48.760;2.322;2022-08-26T03:43:38;101025.91;;;26.23;43.12
56518;BME280;42419;48.760;2.322;2022-08-26T03:46:04;101011.88;;;26.16;42.76
56518;BME280;42419;48.760;2.322;2022-08-26T03:48:30;101016.94;;;26.22;43.22
56518;BME280;42419;48.760;2.322;2022-08-26T03:50:55;101007.16;;;26.20;43.67
56518;BME280;42419;48.760;2.322;2022-08-26T03:53:21;101017.78;;;26.23;42.82
56518;BME280;42419;48.760;2.322;2022-08-26T03:55:48;101017.00;;;26.21;42.90
56518;BME280;42419;48.760;2.322;2022-08-26T03:58:13;101016.13;;;26.20;43.30
56518;BME280;42419;48.760;2.322;2022-08-26T04:00:38;101012.47;;;26.21;43.00
56518;BME280;42419;48.760;2.322;2022-08-26T04:03:04;101014.31;;;26.21;43.16
56518;BME280;42419;48.760;2.322;2022-08-26T04:05:29;101005.63;;;26.16;43.23
56518;BME280;42419;48.760;2.322;2022-08-26T04:07:54;101019.72;;;26.21;43.13
56518;BME280;42419;48.760;2.322;2022-08-26T04:10:21;101014.31;;;26.21;42.89
56518;BME280;42419;48.760;2.322;2022-08-26T04:12:49;101013.63;;;26.17;43.06
56518;BME280;42419;48.760;2.322;2022-08-26T04:15:16;101010.06;;;26.17;42.99
56518;BME280;42419;48.760;2.322;2022-08-26T04:17:42;101013.44;;;26.20;42.92
56518;BME280;42419;48.760;2.322;2022-08-26T04:20:08;101010.94;;;26.17;43.08
56518;BME280;42419;48.760;2.322;2022-08-26T04:22:34;101017.19;;;26.18;42.98
56518;BME280;42419;48.760;2.322;2022-08-26T04:25:00;100992.59;;;26.08;43.40
56518;BME280;42419;48.760;2.322;2022-08-26T04:27:25;101022.53;;;26.19;43.01
56518;BME280;42419;48.760;2.322;2022-08-26T04:29:50;101020.66;;;26.20;43.23
56518;BME280;42419;48.760;2.322;2022-08-26T04:32:16;101017.28;;;26.16;43.18
56518;BME280;42419;48.760;2.322;2022-08-26T04:34:42;101014.50;;;26.18;42.81
56518;BME280;42419;48.760;2.322;2022-08-26T04:37:07;101001.56;;;26.09;43.35
56518;BME280;42419;48.760;2.322;2022-08-26T04:39:33;101014.59;;;26.16;43.32
56518;BME280;42419;48.760;2.322;2022-08-26T04:41:59;101003.41;;;26.08;43.20
56518;BME280;42419;48.760;2.322;2022-08-26T04:44:27;101022.69;;;26.16;42.92
56518;BME280;42419;48.760;2.322;2022-08-26T04:46:53;101018.94;;;26.19;43.01
56518;BME280;42419;48.760;2.322;2022-08-26T04:49:19;101026.19;;;26.18;43.38
56518;BME280;42419;48.760;2.322;2022-08-26T04:51:45;101022.81;;;26.15;43.16
56518;BME280;42419;48.760;2.322;2022-08-26T04:54:11;101029.84;;;26.17;43.07
56518;BME280;42419;48.760;2.322;2022-08-26T04:56:40;101027.22;;;26.16;43.42
56518;BME280;42419;48.760;2.322;2022-08-26T04:59:08;101028.09;;;26.16;43.35
56518;BME280;42419;48.760;2.322;2022-08-26T05:01:35;101006.44;;;26.02;43.44
56518;BME280;42419;48.760;2.322;2022-08-26T05:04:01;101027.13;;;26.17;43.46
56518;BME280;42419;48.760;2.322;2022-08-26T05:06:26;101034.34;;;26.17;43.26
56518;BME280;42419;48.760;2.322;2022-08-26T05:08:53;101031.66;;;26.17;43.07
56518;BME280;42419;48.760;2.322;2022-08-26T05:11:18;101024.78;;;26.11;43.10
56518;BME280;42419;48.760;2.322;2022-08-26T05:13:44;101021.34;;;26.09;43.42
56518;BME280;42419;48.760;2.322;2022-08-26T05:16:11;101022.47;;;26.05;43.93
56518;BME280;42419;48.760;2.322;2022-08-26T05:18:37;101040.63;;;26.17;43.00
56518;BME280;42419;48.760;2.322;2022-08-26T05:21:04;101041.56;;;26.16;42.97
56518;BME280;42419;48.760;2.322;2022-08-26T05:23:30;101058.66;;;26.17;43.21
56518;BME280;42419;48.760;2.322;2022-08-26T05:25:59;101056.81;;;26.17;42.94
56518;BME280;42419;48.760;2.322;2022-08-26T05:28:26;101062.22;;;26.17;43.11
56518;BME280;42419;48.760;2.322;2022-08-26T05:30:52;101048.13;;;26.12;43.38
56518;BME280;42419;48.760;2.322;2022-08-26T05:33:18;101020.50;;;25.93;43.54
56518;BME280;42419;48.760;2.322;2022-08-26T05:35:44;101062.22;;;26.17;43.31
56518;BME280;42419;48.760;2.322;2022-08-26T05:38:13;101060.47;;;26.16;43.02
56518;BME280;42419;48.760;2.322;2022-08-26T05:40:42;101060.59;;;26.15;43.57
56518;BME280;42419;48.760;2.322;2022-08-26T05:43:09;101066.75;;;26.17;43.50
56518;BME280;42419;48.760;2.322;2022-08-26T05:45:40;101065.88;;;26.16;43.33
56518;BME280;42419;48.760;2.322;2022-08-26T05:48:06;101064.13;;;26.15;43.37
56518;BME280;42419;48.760;2.322;2022-08-26T05:50:40;101064.13;;;26.15;43.68
56518;BME280;42419;48.760;2.322;2022-08-26T05:53:07;101079.38;;;26.16;43.57
56518;BME280;42419;48.760;2.322;2022-08-26T05:55:33;101077.53;;;26.17;43.66
56518;BME280;42419;48.760;2.322;2022-08-26T05:57:59;101079.47;;;26.15;43.58
56518;BME280;42419;48.760;2.322;2022-08-26T06:00:25;101067.69;;;26.16;43.12
56518;BME280;42419;48.760;2.322;2022-08-26T06:02:50;101074.16;;;26.13;43.31
56518;BME280;42419;48.760;2.322;2022-08-26T06:05:16;101072.41;;;26.12;43.54
56518;BME280;42419;48.760;2.322;2022-08-26T06:07:41;101047.72;;;26.04;43.51
56518;BME280;42419;48.760;2.322;2022-08-26T06:10:25;101066.06;;;26.13;43.37
56518;BME280;42419;48.760;2.322;2022-08-26T06:12:50;101061.13;;;26.06;43.61
56518;BME280;42419;48.760;2.322;2022-08-26T06:15:16;101069.53;;;26.15;43.17
56518;BME280;42419;48.760;2.322;2022-08-26T06:17:41;101074.94;;;26.15;43.24
56518;BME280;42419;48.760;2.322;2022-08-26T06:20:07;101077.75;;;26.14;43.35
56518;BME280;42419;48.760;2.322;2022-08-26T06:22:32;101028.97;;;25.87;43.56
56518;BME280;42419;48.760;2.322;2022-08-26T06:25:21;101065.47;;;26.08;43.63
56518;BME280;42419;48.760;2.322;2022-08-26T06:28:05;101061.91;;;26.08;43.65
56518;BME280;42419;48.760;2.322;2022-08-26T06:30:33;101075.91;;;26.14;43.59
56518;BME280;42419;48.760;2.322;2022-08-26T06:33:02;101062.09;;;26.05;43.24
56518;BME280;42419;48.760;2.322;2022-08-26T06:35:27;101071.47;;;26.13;43.30
56518;BME280;42419;48.760;2.322;2022-08-26T06:37:52;101069.63;;;26.14;42.89
56518;BME280;42419;48.760;2.322;2022-08-26T06:40:18;101080.50;;;26.12;43.44
56518;BME280;42419;48.760;2.322;2022-08-26T06:42:45;101077.06;;;26.10;43.57
56518;BME280;42419;48.760;2.322;2022-08-26T06:45:10;101075.03;;;26.14;42.92
56518;BME280;42419;48.760;2.322;2022-08-26T06:47:35;101076.78;;;26.15;43.12
56518;BME280;42419;48.760;2.322;2022-08-26T06:50:01;101084.00;;;26.14;43.44
56518;BME280;42419;48.760;2.322;2022-08-26T06:52:26;101084.00;;;26.14;43.09
56518;BME280;42419;48.760;2.322;2022-08-26T06:54:54;101078.69;;;26.13;43.56
56518;BME280;42419;48.760;2.322;2022-08-26T06:57:20;101084.97;;;26.13;43.52
56518;BME280;42419;48.760;2.322;2022-08-26T06:59:45;101088.53;;;26.14;43.55
56518;BME280;42419;48.760;2.322;2022-08-26T07:02:12;101085.84;;;26.14;43.12
56518;BME280;42419;48.760;2.322;2022-08-26T07:04:37;101086.09;;;26.09;43.42
56518;BME280;42419;48.760;2.322;2022-08-26T07:07:02;101093.06;;;26.13;43.00
56518;BME280;42419;48.760;2.322;2022-08-26T07:09:28;101077.22;;;26.07;43.08
56518;BME280;42419;48.760;2.322;2022-08-26T07:11:59;101064.00;;;26.03;43.13
56518;BME280;42419;48.760;2.322;2022-08-26T07:14:26;101080.50;;;26.12;43.38
56518;BME280;42419;48.760;2.322;2022-08-26T07:16:51;101075.47;;;26.06;43.42
56518;BME280;42419;48.760;2.322;2022-08-26T07:19:18;101091.22;;;26.14;43.21
56518;BME280;42419;48.760;2.322;2022-08-26T07:21:44;101088.53;;;26.14;43.07
56518;BME280;42419;48.760;2.322;2022-08-26T07:24:10;101092.97;;;26.15;43.27
56518;BME280;42419;48.760;2.322;2022-08-26T07:26:35;101085.22;;;26.09;42.79
56518;BME280;42419;48.760;2.322;2022-08-26T07:29:01;101080.72;;;26.09;43.00
56518;BME280;42419;48.760;2.322;2022-08-26T07:31:30;101092.97;;;26.15;42.64
56518;BME280;42419;48.760;2.322;2022-08-26T07:33:55;101102.78;;;26.16;42.69
56518;BME280;42419;48.760;2.322;2022-08-26T07:36:21;101094.81;;;26.14;43.19
56518;BME280;42419;48.760;2.322;2022-08-26T07:38:49;101096.50;;;26.15;42.88
56518;BME280;42419;48.760;2.322;2022-08-26T07:41:17;101084.38;;;26.08;43.17
56518;BME280;42419;48.760;2.322;2022-08-26T07:43:43;101109.94;;;26.17;42.95
56518;BME280;42419;48.760;2.322;2022-08-26T07:46:10;101100.00;;;26.17;42.98
56518;BME280;42419;48.760;2.322;2022-08-26T07:48:35;101092.00;;;26.16;42.75
56518;BME280;42419;48.760;2.322;2022-08-26T07:51:02;101101.75;;;26.18;43.02
56518;BME280;42419;48.760;2.322;2022-08-26T07:53:27;101093.06;;;26.13;42.95
56518;BME280;42419;48.760;2.322;2022-08-26T07:55:53;101096.44;;;26.17;43.01
56518;BME280;42419;48.760;2.322;2022-08-26T07:58:18;101099.06;;;26.18;43.15
56518;BME280;42419;48.760;2.322;2022-08-26T08:00:44;101098.09;;;26.19;42.49
56518;BME280;42419;48.760;2.322;2022-08-26T08:03:10;101107.03;;;26.20;42.66
56518;BME280;42419;48.760;2.322;2022-08-26T08:05:36;101097.22;;;26.19;42.76
56518;BME280;42419;48.760;2.322;2022-08-26T08:08:04;101105.22;;;26.20;42.60
56518;BME280;42419;48.760;2.322;2022-08-26T08:10:31;101109.59;;;26.23;42.54
56518;BME280;42419;48.760;2.322;2022-08-26T08:12:57;101105.06;;;26.23;42.37
56518;BME280;42419;48.760;2.322;2022-08-26T08:15:24;101110.47;;;26.23;42.66
56518;BME280;42419;48.760;2.322;2022-08-26T08:17:52;101105.94;;;26.24;42.18
56518;BME280;42419;48.760;2.322;2022-08-26T08:20:19;101095.28;;;26.21;42.30
56518;BME280;42419;48.760;2.322;2022-08-26T08:22:44;101093.53;;;26.20;42.13
56518;BME280;42419;48.760;2.322;2022-08-26T08:25:11;101080.44;;;26.14;42.17
56518;BME280;42419;48.760;2.322;2022-08-26T08:27:37;101104.88;;;26.26;42.08
56518;BME280;42419;48.760;2.322;2022-08-26T08:30:04;101097.63;;;26.27;42.06
56518;BME280;42419;48.760;2.322;2022-08-26T08:32:30;101093.47;;;26.21;42.28
56518;BME280;42419;48.760;2.322;2022-08-26T08:34:56;101092.25;;;26.27;42.35
56518;BME280;42419;48.760;2.322;2022-08-26T08:37:22;101090.69;;;26.23;42.34
56518;BME280;42419;48.760;2.322;2022-08-26T08:39:48;101094.94;;;26.27;42.29
56518;BME280;42419;48.760;2.322;2022-08-26T08:45:30;101093.09;;;26.27;42.27
56518;BME280;42419;48.760;2.322;2022-08-26T08:47:59;101094.78;;;26.30;41.88
56518;BME280;42419;48.760;2.322;2022-08-26T08:50:41;101093.75;;;26.32;42.06
56518;BME280;42419;48.760;2.322;2022-08-26T08:53:17;101099.03;;;26.34;41.60
56518;BME280;42419;48.760;2.322;2022-08-26T08:58:48;101096.16;;;26.37;41.96
56518;BME280;42419;48.760;2.322;2022-08-26T09:06:34;101096.16;;;26.37;41.96
56518;BME280;42419;48.760;2.322;2022-08-26T09:09:00;101091.59;;;26.38;41.89
56518;BME280;42419;48.760;2.322;2022-08-26T09:11:27;101087.94;;;26.39;41.43
56518;BME280;42419;48.760;2.322;2022-08-26T09:13:54;101094.13;;;26.41;41.73
56518;BME280;42419;48.760;2.322;2022-08-26T09:16:27;101085.09;;;26.42;41.57
56518;BME280;42419;48.760;2.322;2022-08-26T09:19:26;101085.75;;;26.45;41.34
56518;BME280;42419;48.760;2.322;2022-08-26T09:21:57;101071.00;;;26.37;41.21
56518;BME280;42419;48.760;2.322;2022-08-26T09:24:24;101086.78;;;26.43;41.40
56518;BME280;42419;48.760;2.322;2022-08-26T09:26:49;101084.09;;;26.43;41.32
56518;BME280;42419;48.760;2.322;2022-08-26T09:29:28;101088.75;;;26.41;41.63
56518;BME280;42419;48.760;2.322;2022-08-26T09:32:18;101083.22;;;26.42;41.51
56518;BME280;42419;48.760;2.322;2022-08-26T09:35:04;101082.38;;;26.42;41.29
56518;BME280;42419;48.760;2.322;2022-08-26T09:37:46;101079.69;;;26.42;41.23
56518;BME280;42419;48.760;2.322;2022-08-26T09:40:33;101081.50;;;26.41;41.24
56518;BME280;42419;48.760;2.322;2022-08-26T09:45:31;101070.78;;;26.40;41.39
56518;BME280;42419;48.760;2.322;2022-08-26T09:47:57;101089.50;;;26.43;41.13
56518;BME280;42419;48.760;2.322;2022-08-26T09:50:34;101076.97;;;26.42;41.08
56518;BME280;42419;48.760;2.322;2022-08-26T09:53:08;101090.38;;;26.43;41.17
56518;BME280;42419;48.760;2.322;2022-08-26T09:55:40;101079.41;;;26.46;41.57
56518;BME280;42419;48.760;2.322;2022-08-26T09:58:06;101085.75;;;26.45;41.49
56518;BME280;42419;48.760;2.322;2022-08-26T10:00:42;101079.50;;;26.45;40.90
56518;BME280;42419;48.760;2.322;2022-08-26T10:03:24;101082.19;;;26.45;41.39
56518;BME280;42419;48.760;2.322;2022-08-26T10:06:26;101080.25;;;26.47;40.95
56518;BME280;42419;48.760;2.322;2022-08-26T10:08:56;101085.75;;;26.45;41.28
56518;BME280;42419;48.760;2.322;2022-08-26T10:11:42;101089.34;;;26.46;41.17
56518;BME280;42419;48.760;2.322;2022-08-26T10:14:18;101076.00;;;26.43;41.36
56518;BME280;42419;48.760;2.322;2022-08-26T10:16:50;101078.66;;;26.58;41.26
56518;BME280;42419;48.760;2.322;2022-08-26T10:19:22;101080.28;;;26.61;41.03
56518;BME280;42419;48.760;2.322;2022-08-26T10:21:59;101075.81;;;26.60;41.26
56518;BME280;42419;48.760;2.322;2022-08-26T10:24:38;101080.19;;;26.62;40.71
56518;BME280;42419;48.760;2.322;2022-08-26T10:27:36;101070.84;;;26.68;40.91
56518;BME280;42419;48.760;2.322;2022-08-26T10:30:10;101075.97;;;26.72;40.58
56518;BME280;42419;48.760;2.322;2022-08-26T10:32:40;101058.22;;;26.68;40.81
56518;BME280;42419;48.760;2.322;2022-08-26T10:35:11;101064.00;;;26.76;40.44
56518;BME280;42419;48.760;2.322;2022-08-26T10:37:40;101064.94;;;26.75;40.53
56518;BME280;42419;48.760;2.322;2022-08-26T10:40:15;101069.69;;;26.72;40.95
56518;BME280;42419;48.760;2.322;2022-08-26T10:42:53;101070.63;;;26.71;40.69
56518;BME280;42419;48.760;2.322;2022-08-26T10:45:23;101071.81;;;26.81;40.25
56518;BME280;42419;48.760;2.322;2022-08-26T10:50:39;101070.66;;;26.85;40.44
56518;BME280;42419;48.760;2.322;2022-08-26T10:55:56;101064.94;;;26.75;40.36
56518;BME280;42419;48.760;2.322;2022-08-26T10:58:46;101070.56;;;26.72;40.46
56518;BME280;42419;48.760;2.322;2022-08-26T11:04:26;101067.34;;;26.66;40.52
56518;BME280;42419;48.760;2.322;2022-08-26T11:07:28;101066.59;;;26.64;40.35
56518;BME280;42419;48.760;2.322;2022-08-26T11:09:55;101065.44;;;26.68;40.53
56518;BME280;42419;48.760;2.322;2022-08-26T11:14:58;101051.63;;;26.87;40.43
56518;BME280;42419;48.760;2.322;2022-08-26T11:20:08;101051.56;;;27.02;39.48
56518;BME280;42419;48.760;2.322;2022-08-26T11:22:36;101049.44;;;27.07;39.40
56518;BME280;42419;48.760;2.322;2022-08-26T11:25:08;101042.09;;;27.09;39.03
56518;BME280;42419;48.760;2.322;2022-08-26T11:30:06;101039.78;;;27.17;38.72
56518;BME280;42419;48.760;2.322;2022-08-26T11:34:58;101047.41;;;27.11;39.37
56518;BME280;42419;48.760;2.322;2022-08-26T11:37:30;101049.50;;;27.20;39.16
56518;BME280;42419;48.760;2.322;2022-08-26T11:39:56;101032.22;;;27.22;38.93
56518;BME280;42419;48.760;2.322;2022-08-26T11:48:22;101043.13;;;27.35;37.95
56518;BME280;42419;48.760;2.322;2022-08-26T11:50:57;101037.50;;;27.38;38.36
56518;BME280;42419;48.760;2.322;2022-08-26T11:53:23;101026.69;;;27.38;38.21
56518;BME280;42419;48.760;2.322;2022-08-26T11:55:51;101024.63;;;27.42;37.91
56518;BME280;42419;48.760;2.322;2022-08-26T11:58:19;101017.22;;;27.45;37.90
56518;BME280;42419;48.760;2.322;2022-08-26T12:00:56;101020.47;;;27.50;37.51
56518;BME280;42419;48.760;2.322;2022-08-26T12:03:38;101019.44;;;27.53;37.63
56518;BME280;42419;48.760;2.322;2022-08-26T12:06:32;101012.84;;;27.57;37.24
56518;BME280;42419;48.760;2.322;2022-08-26T12:09:00;101014.41;;;27.47;37.82
56518;BME280;42419;48.760;2.322;2022-08-26T12:11:32;101010.53;;;27.37;37.57
56518;BME280;42419;48.760;2.322;2022-08-26T12:14:06;101013.25;;;27.37;37.64
56518;BME280;42419;48.760;2.322;2022-08-26T12:16:35;100990.31;;;27.30;37.93
56518;BME280;42419;48.760;2.322;2022-08-26T12:19:21;100993.34;;;27.38;37.16
56518;BME280;42419;48.760;2.322;2022-08-26T12:21:47;100998.19;;;27.47;37.23
56518;BME280;42419;48.760;2.322;2022-08-26T12:24:17;100996.16;;;27.50;37.28
56518;BME280;42419;48.760;2.322;2022-08-26T12:26:43;100979.03;;;27.50;37.42
56518;BME280;42419;48.760;2.322;2022-08-26T12:29:21;100972.09;;;27.46;37.36
56518;BME280;42419;48.760;2.322;2022-08-26T12:31:49;100982.00;;;27.59;37.26
56518;BME280;42419;48.760;2.322;2022-08-26T12:34:15;100986.13;;;27.65;37.15
56518;BME280;42419;48.760;2.322;2022-08-26T12:36:51;100921.31;;;27.37;36.61
56518;BME280;42419;48.760;2.322;2022-08-26T12:39:27;100983.13;;;27.70;36.89
56518;BME280;42419;48.760;2.322;2022-08-26T12:41:57;100979.31;;;27.72;36.88
56518;BME280;42419;48.760;2.322;2022-08-26T12:49:43;100973.47;;;27.65;37.07
56518;BME280;42419;48.760;2.322;2022-08-26T12:52:22;100976.59;;;27.59;36.64
56518;BME280;42419;48.760;2.322;2022-08-26T12:55:03;100966.84;;;27.57;36.72
56518;BME280;42419;48.760;2.322;2022-08-26T12:57:36;100961.00;;;27.63;36.37
56518;BME280;42419;48.760;2.322;2022-08-26T13:02:55;100960.34;;;27.59;36.59
56518;BME280;42419;48.760;2.322;2022-08-26T13:05:23;100936.34;;;27.41;36.54
56518;BME280;42419;48.760;2.322;2022-08-26T13:08:11;100956.75;;;27.46;36.54
56518;BME280;42419;48.760;2.322;2022-08-26T13:10:40;100952.56;;;27.41;36.76
56518;BME280;42419;48.760;2.322;2022-08-26T13:13:06;100956.44;;;27.51;36.70
56518;BME280;42419;48.760;2.322;2022-08-26T13:15:31;100947.28;;;27.53;36.35
56518;BME280;42419;48.760;2.322;2022-08-26T13:17:56;100924.97;;;27.36;36.36
56518;BME280;42419;48.760;2.322;2022-08-26T13:20:22;100923.41;;;27.46;36.49
56518;BME280;42419;48.760;2.322;2022-08-26T13:22:49;100946.09;;;27.57;36.48
56518;BME280;42419;48.760;2.322;2022-08-26T13:25:15;100931.69;;;27.57;36.59
56518;BME280;42419;48.760;2.322;2022-08-26T13:27:41;100934.81;;;27.63;36.24
56518;BME280;42419;48.760;2.322;2022-08-26T13:30:08;100918.34;;;27.54;36.02
56518;BME280;42419;48.760;2.322;2022-08-26T13:32:33;100928.66;;;27.61;36.25
56518;BME280;42419;48.760;2.322;2022-08-26T13:34:59;100926.63;;;27.65;35.98
56518;BME280;42419;48.760;2.322;2022-08-26T13:37:25;100924.66;;;27.67;35.84
56518;BME280;42419;48.760;2.322;2022-08-26T13:39:51;100917.41;;;27.67;36.07
56518;BME280;42419;48.760;2.322;2022-08-26T13:42:18;100918.28;;;27.68;36.05
56518;BME280;42419;48.760;2.322;2022-08-26T13:44:44;100910.06;;;27.70;35.78
56518;BME280;42419;48.760;2.322;2022-08-26T13:47:11;100911.69;;;27.72;36.06
56518;BME280;42419;48.760;2.322;2022-08-26T13:49:37;100910.72;;;27.73;35.89